createdAt,value
2022-12-14T00:01:26.247Z,29.73
2022-12-14T00:03:54.325Z,32.25
2022-12-14T00:06:27.100Z,32.03
2022-12-14T00:08:55.799Z,32.58
2022-12-14T00:11:22.719Z,27.92
2022-12-14T00:13:54.290Z,30.63
2022-12-14T00:16:21.566Z,32.15
2022-12-14T00:18:52.994Z,32.60
2022-12-14T00:21:20.270Z,31.70
2022-12-14T00:23:48.256Z,31.27
2022-12-14T00:26:28.923Z,36.63
2022-12-14T00:28:56.200Z,30.40
2022-12-14T00:31:24.362Z,32.25
2022-12-14T00:33:51.540Z,30.17
2022-12-14T00:36:18.833Z,33.30
2022-12-14T00:38:45.488Z,31.17
2022-12-14T00:41:12.630Z,36.63
2022-12-14T00:43:39.635Z,29.77
2022-12-14T00:46:06.879Z,30.67
2022-12-14T00:48:34.228Z,30.88
2022-12-14T00:51:01.072Z,27.40
2022-12-14T00:53:27.702Z,31.15
2022-12-14T00:55:54.504Z,30.67
2022-12-14T00:58:23.256Z,33.95
2022-12-14T01:01:04.638Z,31.80
2022-12-14T01:03:32.054Z,30.37
2022-12-14T01:05:58.973Z,28.45
2022-12-14T01:08:25.575Z,33.25
2022-12-14T01:10:52.392Z,30.00
2022-12-14T01:13:19.233Z,31.98
2022-12-14T01:15:45.939Z,31.37
2022-12-14T01:18:12.984Z,31.95
2022-12-14T01:20:40.383Z,28.38
2022-12-14T01:23:07.037Z,29.08
2022-12-14T01:25:33.879Z,29.50
2022-12-14T01:28:00.439Z,32.20
2022-12-14T01:30:27.108Z,32.17
2022-12-14T01:32:53.584Z,30.83
2022-12-14T01:35:20.147Z,30.88
2022-12-14T01:37:48.975Z,31.17
2022-12-14T01:40:16.241Z,30.93
2022-12-14T01:42:42.868Z,30.02
2022-12-14T01:45:21.712Z,27.67
2022-12-14T01:47:58.084Z,28.95
2022-12-14T01:50:36.310Z,28.25
2022-12-14T01:53:07.482Z,33.23
2022-12-14T01:55:37.683Z,33.42
2022-12-14T01:58:15.172Z,33.03
2022-12-14T02:00:43.490Z,30.85
2022-12-14T02:03:20.735Z,29.92
2022-12-14T02:05:53.021Z,30.47
2022-12-14T02:08:21.105Z,32.45
2022-12-14T02:10:48.547Z,33.92
2022-12-14T02:13:21.141Z,35.75
2022-12-14T02:15:47.822Z,33.83
2022-12-14T02:18:20.510Z,33.67
2022-12-14T02:21:13.168Z,31.63
2022-12-14T02:24:17.765Z,34.80
2022-12-14T02:27:02.668Z,27.95
2022-12-14T02:30:06.496Z,36.72
2022-12-14T02:32:51.700Z,32.83
2022-12-14T02:35:37.091Z,39.78
2022-12-14T02:38:22.108Z,36.25
2022-12-14T02:41:06.784Z,39.53
2022-12-14T02:44:03.338Z,36.83
2022-12-14T02:46:50.631Z,29.17
2022-12-14T02:49:41.605Z,32.65
2022-12-14T02:52:41.468Z,34.08
2022-12-14T02:55:30.133Z,35.45
2022-12-14T02:58:01.760Z,32.67
2022-12-14T03:00:32.235Z,36.53
2022-12-14T03:03:00.406Z,33.13
2022-12-14T03:05:27.019Z,37.30
2022-12-14T03:07:57.448Z,36.58
2022-12-14T03:10:50.479Z,36.63
2022-12-14T03:13:23.905Z,35.23
2022-12-14T03:16:00.803Z,30.00
2022-12-14T03:18:32.638Z,35.58
2022-12-14T03:21:01.151Z,34.35
2022-12-14T03:23:34.952Z,37.33
2022-12-14T03:26:21.931Z,30.73
2022-12-14T03:28:56.297Z,36.17
2022-12-14T03:31:31.625Z,32.42
2022-12-14T03:33:59.956Z,30.88
2022-12-14T03:36:29.226Z,34.25
2022-12-14T03:39:00.239Z,30.90
2022-12-14T03:41:55.411Z,28.55
2022-12-14T03:44:45.202Z,32.05
2022-12-14T03:47:31.005Z,26.05
2022-12-14T03:50:08.797Z,27.90
2022-12-14T03:52:52.055Z,31.83
2022-12-14T03:55:33.236Z,31.33
2022-12-14T03:58:18.645Z,37.35
2022-12-14T04:00:54.910Z,31.00
2022-12-14T04:03:24.638Z,33.63
2022-12-14T04:06:05.944Z,34.77
2022-12-14T04:08:44.724Z,31.77
2022-12-14T04:11:33.663Z,37.25
2022-12-14T04:14:29.629Z,30.42
2022-12-14T04:17:18.911Z,30.35
2022-12-14T04:20:02.015Z,30.13
2022-12-14T04:22:32.915Z,37.70
2022-12-14T04:25:42.219Z,36.85
2022-12-14T04:28:37.964Z,34.97
2022-12-14T04:31:09.486Z,32.95
2022-12-14T04:33:48.539Z,32.33
2022-12-14T04:36:44.239Z,31.77
2022-12-14T04:39:19.186Z,33.05
2022-12-14T04:41:49.631Z,31.48
2022-12-14T04:44:25.116Z,35.47
2022-12-14T04:46:54.119Z,19.87
2022-12-14T04:49:29.310Z,32.35
2022-12-14T04:52:05.435Z,29.30
2022-12-14T04:54:44.909Z,31.80
2022-12-14T04:57:21.025Z,25.02
2022-12-14T04:59:48.812Z,36.57
2022-12-14T05:02:33.779Z,37.45
2022-12-14T05:05:19.229Z,34.15
2022-12-14T05:07:57.785Z,22.25
2022-12-14T05:10:41.014Z,33.35
2022-12-14T05:13:14.850Z,29.13
2022-12-14T05:15:48.740Z,27.50
2022-12-14T05:18:15.759Z,28.60
2022-12-14T05:20:42.328Z,30.30
2022-12-14T05:23:09.466Z,29.73
2022-12-14T05:25:36.034Z,31.13
2022-12-14T05:28:02.680Z,26.15
2022-12-14T05:30:29.631Z,29.60
2022-12-14T05:32:56.523Z,32.55
2022-12-14T05:35:23.274Z,30.13
2022-12-14T05:37:49.863Z,31.43
2022-12-14T05:40:16.500Z,31.20
2022-12-14T05:42:46.166Z,26.45
2022-12-14T05:45:14.760Z,31.88
2022-12-14T05:47:41.412Z,31.98
2022-12-14T05:50:08.796Z,32.70
2022-12-14T05:52:35.627Z,31.73
2022-12-14T05:55:04.420Z,32.85
2022-12-14T05:57:32.552Z,30.48
2022-12-14T06:00:00.134Z,33.88
2022-12-14T06:02:27.072Z,25.63
2022-12-14T06:04:53.704Z,28.77
2022-12-14T06:07:25.918Z,31.45
2022-12-14T06:09:54.222Z,30.55
2022-12-14T06:12:20.986Z,30.60
2022-12-14T06:14:47.738Z,36.27
2022-12-14T06:17:14.288Z,29.45
2022-12-14T06:19:40.845Z,34.33
2022-12-14T06:22:07.401Z,34.33
2022-12-14T06:24:33.996Z,30.52
2022-12-14T06:27:00.783Z,35.30
2022-12-14T06:29:27.375Z,29.92
2022-12-14T06:31:53.977Z,29.08
2022-12-14T06:34:26.385Z,28.23
2022-12-14T06:36:55.054Z,27.45
2022-12-14T06:39:21.682Z,39.07
2022-12-14T06:41:51.743Z,35.85
2022-12-14T06:44:18.744Z,28.25
2022-12-14T06:46:45.508Z,32.35
2022-12-14T06:49:14.416Z,31.33
2022-12-14T06:51:41.866Z,35.23
2022-12-14T06:54:13.542Z,32.13
2022-12-14T06:56:41.315Z,32.65
2022-12-14T06:59:09.237Z,25.90
2022-12-14T07:01:37.258Z,29.52
2022-12-14T07:04:04.882Z,29.57
2022-12-14T07:06:37.753Z,31.58
2022-12-14T07:09:05.707Z,29.05
2022-12-14T07:11:32.407Z,33.40
2022-12-14T07:14:05.875Z,33.25
2022-12-14T07:16:33.756Z,28.93
2022-12-14T07:19:00.808Z,32.17
2022-12-14T07:21:27.553Z,32.22
2022-12-14T07:23:54.320Z,28.20
2022-12-14T07:26:25.844Z,30.85
2022-12-14T07:28:53.422Z,33.90
2022-12-14T07:31:23.127Z,32.67
2022-12-14T07:33:52.377Z,26.08
2022-12-14T07:36:20.440Z,32.75
2022-12-14T07:38:50.060Z,31.27
2022-12-14T07:41:29.350Z,31.00
2022-12-14T07:43:57.482Z,33.92
2022-12-14T07:46:26.901Z,26.55
2022-12-14T07:48:55.634Z,28.80
2022-12-14T07:51:25.329Z,31.38
2022-12-14T07:53:52.678Z,26.83
2022-12-14T07:56:28.352Z,27.77
2022-12-14T07:58:56.612Z,27.38
2022-12-14T08:01:24.377Z,29.27
2022-12-14T08:04:11.662Z,29.60
2022-12-14T08:06:39.187Z,31.60
2022-12-14T08:09:07.095Z,20.77
2022-12-14T08:11:34.066Z,21.63
2022-12-14T08:14:03.501Z,28.73
2022-12-14T08:16:30.850Z,27.20
2022-12-14T08:18:58.990Z,29.73
2022-12-14T08:21:26.374Z,31.85
2022-12-14T08:23:54.518Z,29.50
2022-12-14T08:26:22.381Z,28.80
2022-12-14T08:28:48.888Z,33.10
2022-12-14T08:31:20.906Z,21.27
2022-12-14T08:33:48.071Z,28.13
2022-12-14T08:36:20.720Z,27.42
2022-12-14T08:38:52.458Z,30.83
2022-12-14T08:41:19.042Z,27.63
2022-12-14T08:43:50.560Z,29.10
2022-12-14T08:46:17.617Z,28.95
2022-12-14T08:48:44.264Z,31.70
2022-12-14T08:51:11.002Z,29.52
2022-12-14T08:53:38.630Z,29.08
2022-12-14T08:56:11.060Z,21.17
2022-12-14T08:58:39.182Z,28.80
2022-12-14T09:01:16.370Z,20.75
2022-12-14T09:03:44.730Z,19.23
2022-12-14T09:06:14.976Z,26.77
2022-12-14T09:08:41.753Z,30.23
2022-12-14T09:11:12.334Z,27.75
2022-12-14T09:13:39.247Z,21.98
2022-12-14T09:16:17.750Z,29.13
2022-12-14T09:18:45.454Z,25.27
2022-12-14T09:21:12.554Z,29.00
2022-12-14T09:23:40.703Z,25.45
2022-12-14T09:26:12.991Z,27.45
2022-12-14T09:28:42.578Z,33.88
2022-12-14T09:31:14.395Z,28.73
2022-12-14T09:33:41.539Z,24.40
2022-12-14T09:36:12.027Z,26.00
2022-12-14T09:38:39.342Z,30.60
2022-12-14T09:41:15.097Z,25.20
2022-12-14T09:43:45.959Z,28.65
2022-12-14T09:46:25.552Z,26.20
2022-12-14T09:48:53.488Z,26.40
2022-12-14T09:51:22.886Z,30.75
2022-12-14T09:54:02.970Z,29.02
2022-12-14T09:56:29.630Z,23.80
2022-12-14T09:58:59.172Z,26.10
2022-12-14T10:02:29.770Z,28.25
2022-12-14T10:05:11.319Z,29.17
2022-12-14T10:07:48.351Z,32.33
2022-12-14T10:10:53.300Z,34.50
2022-12-14T10:13:35.410Z,38.47
2022-12-14T10:16:16.073Z,29.95
2022-12-14T10:19:03.641Z,30.70
2022-12-14T10:21:41.436Z,24.67
2022-12-14T10:24:15.127Z,26.27
2022-12-14T10:26:47.780Z,24.43
2022-12-14T10:29:53.327Z,24.88
2022-12-14T10:32:28.816Z,26.13
2022-12-14T10:34:55.756Z,25.50
2022-12-14T10:37:25.522Z,24.35
2022-12-14T10:40:16.413Z,27.70
2022-12-14T10:43:14.495Z,23.45
2022-12-14T10:45:48.275Z,26.33
2022-12-14T10:48:39.981Z,25.98
2022-12-14T10:51:17.780Z,25.08
2022-12-14T10:54:03.540Z,30.50
2022-12-14T10:56:33.649Z,26.02
2022-12-14T10:59:20.549Z,23.60
2022-12-14T11:01:52.514Z,23.95
2022-12-14T11:04:29.559Z,25.55
2022-12-14T11:06:58.459Z,32.30
2022-12-14T11:09:26.037Z,27.88
2022-12-14T11:12:21.806Z,17.90
2022-12-14T11:15:03.075Z,25.38
2022-12-14T11:17:29.644Z,23.48
2022-12-14T11:20:19.655Z,26.73
2022-12-14T11:22:51.602Z,25.85
2022-12-14T11:25:28.715Z,25.92
2022-12-14T11:27:56.714Z,25.92
2022-12-14T11:30:23.631Z,27.55
2022-12-14T11:32:51.212Z,22.40
2022-12-14T11:35:19.542Z,27.77
2022-12-14T11:37:49.241Z,26.52
2022-12-14T11:40:26.012Z,27.85
2022-12-14T11:43:01.425Z,27.50
2022-12-14T11:45:31.973Z,23.63
2022-12-14T11:48:14.241Z,26.98
2022-12-14T11:50:42.768Z,26.50
2022-12-14T11:53:15.452Z,25.20
2022-12-14T11:56:04.737Z,25.33
2022-12-14T11:58:34.628Z,26.40
2022-12-14T12:01:06.408Z,25.48
2022-12-14T12:03:37.084Z,25.20
2022-12-14T12:06:07.131Z,26.25
2022-12-14T12:08:37.307Z,26.90
2022-12-14T12:11:13.973Z,26.60
2022-12-14T12:13:44.882Z,25.05
2022-12-14T12:16:22.214Z,28.70
2022-12-14T12:19:00.018Z,26.65
2022-12-14T12:21:28.835Z,25.65
2022-12-14T12:23:59.054Z,28.60
2022-12-14T12:26:30.795Z,24.98
2022-12-14T12:29:06.953Z,30.67
2022-12-14T12:31:40.679Z,28.90
2022-12-14T12:34:17.307Z,30.23
2022-12-14T12:37:03.056Z,25.37
2022-12-14T12:39:35.521Z,24.23
2022-12-14T12:42:17.674Z,26.25
2022-12-14T12:45:09.180Z,23.98
2022-12-14T12:47:47.532Z,25.08
2022-12-14T12:50:26.689Z,22.03
2022-12-14T12:53:02.352Z,26.02
2022-12-14T12:55:34.365Z,23.67
2022-12-14T12:58:03.017Z,23.58
2022-12-14T13:00:30.571Z,22.48
2022-12-14T13:03:02.295Z,20.53
2022-12-14T13:05:46.227Z,23.27
2022-12-14T13:08:21.223Z,23.52
2022-12-14T13:13:40.120Z,26.58
2022-12-14T13:16:07.302Z,26.17
2022-12-14T13:18:59.755Z,27.13
2022-12-14T13:21:32.719Z,25.27
2022-12-14T13:23:59.605Z,25.88
2022-12-14T13:26:59.928Z,21.15
2022-12-14T13:29:48.803Z,24.03
2022-12-14T13:32:37.690Z,23.90
2022-12-14T13:35:42.176Z,24.52
2022-12-14T13:38:11.562Z,23.40
2022-12-14T13:40:50.012Z,26.83
2022-12-14T13:43:22.810Z,24.73
2022-12-14T13:45:49.837Z,22.63
2022-12-14T13:48:27.936Z,23.33
2022-12-14T13:51:01.936Z,24.10
2022-12-14T13:53:50.812Z,25.08
2022-12-14T13:56:29.306Z,21.63
2022-12-14T13:59:01.934Z,23.83
2022-12-14T14:01:47.061Z,27.35
2022-12-14T14:04:17.424Z,24.00
2022-12-14T14:06:44.094Z,21.65
2022-12-14T14:09:26.049Z,22.23
2022-12-14T14:12:27.841Z,23.98
2022-12-14T14:15:13.204Z,21.08
2022-12-14T14:17:48.987Z,24.20
2022-12-14T14:20:38.377Z,22.63
2022-12-14T14:23:14.234Z,27.83
2022-12-14T14:26:10.264Z,24.30
2022-12-14T14:28:38.080Z,16.52
2022-12-14T14:31:05.620Z,27.17
2022-12-14T14:33:46.531Z,24.58
2022-12-14T14:36:26.871Z,28.80
2022-12-14T14:38:55.809Z,23.98
2022-12-14T14:41:29.907Z,28.90
2022-12-14T14:44:01.068Z,25.30
2022-12-14T14:46:43.391Z,26.90
2022-12-14T14:49:31.758Z,25.97
2022-12-14T14:52:37.008Z,25.25
2022-12-14T14:58:32.463Z,27.20
2022-12-14T15:01:17.627Z,24.73
2022-12-14T15:03:50.284Z,32.03
2022-12-14T15:06:23.165Z,29.05
2022-12-14T15:09:12.000Z,27.02
2022-12-14T15:11:49.761Z,26.10
2022-12-14T15:14:46.696Z,27.52
2022-12-14T15:17:19.660Z,28.30
2022-12-14T15:19:53.422Z,27.90
2022-12-14T15:22:23.355Z,31.27
2022-12-14T15:24:57.118Z,27.52
2022-12-14T15:27:35.779Z,33.22
2022-12-14T15:30:05.805Z,29.60
2022-12-14T15:32:33.006Z,34.78
2022-12-14T15:35:03.226Z,32.75
2022-12-14T15:37:34.839Z,37.75
2022-12-14T15:40:16.784Z,34.47
2022-12-14T15:42:55.623Z,37.27
2022-12-14T15:45:31.327Z,40.67
2022-12-14T15:48:25.091Z,42.30
2022-12-14T15:50:58.769Z,45.13
2022-12-14T15:53:36.520Z,48.28
2022-12-14T15:56:16.356Z,53.93
2022-12-14T15:58:43.865Z,48.13
2022-12-14T16:01:17.394Z,48.95
2022-12-14T16:03:47.262Z,40.90
2022-12-14T16:06:17.282Z,36.72
2022-12-14T16:08:56.523Z,37.67
2022-12-14T16:11:28.212Z,42.13
2022-12-14T16:13:57.627Z,36.90
2022-12-14T16:16:24.333Z,39.10
2022-12-14T16:18:51.937Z,34.83
2022-12-14T16:21:30.322Z,40.57
2022-12-14T16:23:58.485Z,35.85
2022-12-14T16:26:33.303Z,37.00
2022-12-14T16:29:21.219Z,36.28
2022-12-14T16:31:48.653Z,37.65
2022-12-14T16:34:20.770Z,38.57
2022-12-14T16:37:22.720Z,41.50
2022-12-14T16:39:44.546Z,36.33
2022-12-14T16:42:22.270Z,36.58
2022-12-14T16:44:49.049Z,35.85
2022-12-14T16:47:15.871Z,39.90
2022-12-14T16:49:56.520Z,32.33
2022-12-14T16:52:26.793Z,39.53
2022-12-14T16:55:18.081Z,38.85
2022-12-14T16:57:47.848Z,39.40
2022-12-14T17:00:23.427Z,36.10
2022-12-14T17:02:57.498Z,34.50
2022-12-14T17:05:26.955Z,36.53
2022-12-14T17:07:53.580Z,39.60
2022-12-14T17:10:23.066Z,44.45
2022-12-14T17:12:50.299Z,38.73
2022-12-14T17:15:19.792Z,42.50
2022-12-14T17:17:49.409Z,42.72
2022-12-14T17:20:36.738Z,44.08
2022-12-14T17:23:06.246Z,43.58
2022-12-14T17:25:32.990Z,51.57
2022-12-14T17:28:00.627Z,50.22
2022-12-14T17:30:27.899Z,54.03
2022-12-14T17:32:55.264Z,55.95
2022-12-14T17:35:34.210Z,47.42
2022-12-14T17:38:00.764Z,45.50
2022-12-14T17:40:27.716Z,42.38
2022-12-14T17:42:57.065Z,46.33
2022-12-14T17:45:26.604Z,51.47
2022-12-14T17:47:54.434Z,53.63
2022-12-14T17:50:22.046Z,48.43
2022-12-14T17:52:50.215Z,47.78
2022-12-14T17:55:19.483Z,47.30
2022-12-14T17:57:46.760Z,45.15
2022-12-14T18:00:40.220Z,47.05
2022-12-14T18:03:07.706Z,41.90
2022-12-14T18:05:34.422Z,41.38
2022-12-14T18:08:01.298Z,43.75
2022-12-14T18:10:28.319Z,42.33
2022-12-14T18:12:55.612Z,45.70
2022-12-14T18:15:34.373Z,38.63
2022-12-14T18:18:01.081Z,45.40
2022-12-14T18:20:27.657Z,47.38
2022-12-14T18:22:54.291Z,42.42
2022-12-14T18:25:33.318Z,41.10
2022-12-14T18:28:01.554Z,41.60
2022-12-14T18:30:32.100Z,48.00
2022-12-14T18:33:03.592Z,58.65
2022-12-14T18:35:32.170Z,52.78
2022-12-14T18:37:59.349Z,60.08
2022-12-14T18:40:28.281Z,56.57
2022-12-14T18:42:56.203Z,57.65
2022-12-14T18:45:28.877Z,57.97
2022-12-14T18:47:55.734Z,54.33
2022-12-14T18:50:23.470Z,57.10
2022-12-14T18:52:50.338Z,45.13
2022-12-14T18:55:19.762Z,52.95
2022-12-14T18:57:49.014Z,56.03
2022-12-14T19:00:18.719Z,53.78
2022-12-14T19:02:47.027Z,53.35
2022-12-14T19:05:23.247Z,56.87
2022-12-14T19:07:52.496Z,47.67
2022-12-14T19:10:22.707Z,49.53
2022-12-14T19:12:50.297Z,52.08
2022-12-14T19:15:37.070Z,53.17
2022-12-14T19:18:03.673Z,61.57
2022-12-14T19:20:30.399Z,75.03
2022-12-14T19:22:57.128Z,83.25
2022-12-14T19:25:24.408Z,81.45
2022-12-14T19:30:39.106Z,73.60
2022-12-14T19:33:06.275Z,89.53
2022-12-14T19:35:32.949Z,77.13
2022-12-14T19:37:59.539Z,84.07
2022-12-14T19:40:26.517Z,76.10
2022-12-14T19:42:53.154Z,71.17
2022-12-14T19:45:19.942Z,72.82
2022-12-14T19:47:46.547Z,62.80
2022-12-14T19:50:14.561Z,54.75
2022-12-14T19:52:42.739Z,45.88
2022-12-14T19:55:10.718Z,41.47
2022-12-14T19:57:38.953Z,47.10
2022-12-14T20:00:07.421Z,43.95
2022-12-14T20:02:34.344Z,46.38
2022-12-14T20:05:01.249Z,51.70
2022-12-14T20:07:27.855Z,53.03
2022-12-14T20:09:54.443Z,55.13
2022-12-14T20:12:21.194Z,56.25
2022-12-14T20:14:49.531Z,53.53
2022-12-14T20:17:16.597Z,54.22
2022-12-14T20:19:43.526Z,47.37
2022-12-14T20:22:10.223Z,53.30
2022-12-14T20:24:37.010Z,56.72
2022-12-14T20:27:03.899Z,59.40
2022-12-14T20:29:30.612Z,58.28
2022-12-14T20:31:57.320Z,60.90
2022-12-14T20:34:24.872Z,57.20
2022-12-14T20:36:51.571Z,53.33
2022-12-14T20:39:18.335Z,56.83
2022-12-14T20:41:44.919Z,53.30
2022-12-14T20:44:16.057Z,57.40
2022-12-14T20:46:45.518Z,55.88
2022-12-14T20:49:17.548Z,55.03
2022-12-14T20:51:45.813Z,48.95
2022-12-14T20:54:18.489Z,53.15
2022-12-14T20:56:49.412Z,52.03
2022-12-14T20:59:16.245Z,47.83
2022-12-14T21:01:43.702Z,42.45
2022-12-14T21:04:10.427Z,51.90
2022-12-14T21:06:39.219Z,49.55
2022-12-14T21:09:09.985Z,51.20
2022-12-14T21:12:03.924Z,54.65
2022-12-14T21:14:33.730Z,48.70
2022-12-14T21:17:01.140Z,46.65
2022-12-14T21:19:28.233Z,47.28
2022-12-14T21:21:54.871Z,47.40
2022-12-14T21:24:53.218Z,48.42
2022-12-14T21:27:15.272Z,49.80
2022-12-14T21:29:41.783Z,51.90
2022-12-14T21:32:08.452Z,46.15
2022-12-14T21:34:35.086Z,53.50
2022-12-14T21:37:01.593Z,54.55
2022-12-14T21:39:28.199Z,56.95
2022-12-14T21:42:13.891Z,59.15
2022-12-14T21:44:43.169Z,44.00
2022-12-14T21:47:16.304Z,49.40
2022-12-14T21:49:45.032Z,46.45
2022-12-14T21:52:17.540Z,51.30
2022-12-14T21:54:44.703Z,52.33
2022-12-14T21:57:38.042Z,52.90
2022-12-14T22:00:07.313Z,45.87
2022-12-14T22:02:34.131Z,47.67
2022-12-14T22:05:00.890Z,49.58
2022-12-14T22:07:32.434Z,45.05
2022-12-14T22:09:59.272Z,51.17
2022-12-14T22:12:26.386Z,50.07
2022-12-14T22:14:53.109Z,49.85
2022-12-14T22:17:19.655Z,47.63
2022-12-14T22:19:46.386Z,49.53
2022-12-14T22:22:15.233Z,48.42
2022-12-14T22:24:42.446Z,47.90
2022-12-14T22:27:11.042Z,44.53
2022-12-14T22:29:37.666Z,46.80
2022-12-14T22:32:04.579Z,46.83
2022-12-14T22:34:31.159Z,48.15
2022-12-14T22:36:57.703Z,44.87
2022-12-14T22:39:24.298Z,49.65
2022-12-14T22:41:50.884Z,48.22
2022-12-14T22:44:17.511Z,47.55
2022-12-14T22:46:44.080Z,55.58
2022-12-14T22:49:16.308Z,68.23
2022-12-14T22:51:42.964Z,53.42
2022-12-14T22:54:11.369Z,50.25
2022-12-14T22:56:43.453Z,61.35
2022-12-14T22:59:17.274Z,51.45
2022-12-14T23:01:50.127Z,46.53
2022-12-14T23:04:17.864Z,45.60
2022-12-14T23:06:45.087Z,59.20
2022-12-14T23:09:31.122Z,49.95
2022-12-14T23:12:21.664Z,45.42
2022-12-14T23:15:07.926Z,42.97
2022-12-14T23:17:53.424Z,63.38
2022-12-14T23:20:38.877Z,50.05
2022-12-14T23:23:25.088Z,49.25
2022-12-14T23:26:09.925Z,45.97
2022-12-14T23:28:55.432Z,43.17
2022-12-14T23:31:40.280Z,44.08
2022-12-14T23:34:25.662Z,44.50
2022-12-14T23:37:13.717Z,47.17
2022-12-14T23:40:01.220Z,39.40
2022-12-14T23:42:47.544Z,43.60
2022-12-14T23:45:32.741Z,41.35
2022-12-14T23:48:17.662Z,39.08
2022-12-14T23:51:02.456Z,40.50
2022-12-14T23:53:49.970Z,40.95
2022-12-14T23:56:35.755Z,41.53
2022-12-14T23:59:24.949Z,38.58
